Time;durP1;ratioP1;P1;durP2;ratioP2;P2;SDS_P1;SDS_P2;PMS_P1;PMS_P2;Temp;Humidity;BMP_temperature;BMP_pressure;BME280_temperature;BME280_humidity;BME280_pressure;Samples;Min_cycle;Max_cycle;Signal;HPM_P1;HPM_P2
2022/10/13 00:01:21;;;;;;;7.28;4.68;;;;;;;12.01;65.13;97732.34;4921002;28;20785;-78
2022/10/13 00:03:47;;;;;;;7.75;5.47;;;;;;;12.12;65.02;97731.47;4926406;28;20223;-78
2022/10/13 00:06:17;;;;;;;9.77;6.03;;;;;;;12.13;64.75;97735.66;4948002;28;20565;-78
2022/10/13 00:08:43;;;;;;;9.85;6.47;;;;;;;12.16;65.08;97723.94;4931488;28;20207;-78
2022/10/13 00:11:20;;;;;;;10.57;6.20;;;;;;;12.04;65.53;97723.25;4913161;28;20166;-78
2022/10/13 00:13:46;;;;;;;12.00;6.50;;;;;;;12.27;64.95;97733.50;4894655;28;20140;-78
2022/10/13 00:16:13;;;;;;;10.15;5.25;;;;;;;12.33;64.50;97719.47;4919994;28;20425;-78
2022/10/13 00:18:39;;;;;;;9.57;5.82;;;;;;;12.40;64.63;97727.13;4935060;28;20246;-78
2022/10/13 00:21:13;;;;;;;12.02;6.05;;;;;;;12.36;64.41;97728.66;4923099;28;20215;-78
2022/10/13 00:23:39;;;;;;;12.75;6.35;;;;;;;12.29;64.88;97728.03;4923747;28;20192;-78
2022/10/13 00:26:06;;;;;;;7.88;6.00;;;;;;;12.29;64.50;97739.28;4961869;28;20334;-78
2022/10/13 00:28:32;;;;;;;10.52;6.43;;;;;;;12.33;64.57;97742.97;4907236;28;20181;-78
2022/10/13 00:30:58;;;;;;;10.00;6.18;;;;;;;12.32;64.91;97745.81;4942226;28;20279;-78
2022/10/13 00:33:23;;;;;;;10.75;6.18;;;;;;;12.42;64.54;97732.88;4943297;28;20195;-78
2022/10/13 00:35:48;;;;;;;10.70;5.78;;;;;;;12.38;64.08;97737.03;4919839;28;20191;-78
2022/10/13 00:38:16;;;;;;;8.25;5.93;;;;;;;12.20;64.35;97726.84;4899279;28;20510;-78
2022/10/13 00:40:43;;;;;;;10.80;6.35;;;;;;;12.15;64.85;97732.81;4928110;28;20311;-78
2022/10/13 00:43:26;;;;;;;12.13;6.93;;;;;;;11.97;64.86;97731.25;4913866;28;20180;-78
2022/10/13 00:45:53;;;;;;;9.93;5.95;;;;;;;12.05;64.62;97725.63;4939364;28;20631;-78
2022/10/13 00:48:24;;;;;;;8.25;5.25;;;;;;;11.98;63.95;97732.84;4940608;28;20187;-78
2022/10/13 00:50:50;;;;;;;9.13;5.30;;;;;;;12.14;63.09;97732.00;4931465;28;20395;-78
2022/10/13 00:53:17;;;;;;;10.05;5.55;;;;;;;11.93;63.56;97736.16;4934446;28;20693;-78
2022/10/13 00:55:44;;;;;;;7.88;4.85;;;;;;;11.81;63.89;97732.81;4918546;28;20792;-78
2022/10/13 00:58:14;;;;;;;10.50;6.35;;;;;;;11.79;64.32;97734.88;4933742;28;20166;-78
2022/10/13 01:00:44;;;;;;;9.02;5.82;;;;;;;11.87;64.19;97731.84;4914291;28;20277;-78
2022/10/13 01:03:10;;;;;;;10.82;5.90;;;;;;;11.80;64.26;97737.22;4935594;28;20286;-78
2022/10/13 01:05:36;;;;;;;11.48;5.55;;;;;;;11.67;64.24;97734.16;4904688;28;20663;-78
2022/10/13 01:08:02;;;;;;;11.60;5.80;;;;;;;11.62;64.28;97738.28;4908941;28;20184;-78
2022/10/13 01:11:12;;;;;;;8.98;4.97;;;;;;;11.41;64.75;97742.38;4948166;28;20277;-78
2022/10/13 01:13:44;;;;;;;8.50;5.00;;;;;;;11.60;64.21;97729.91;4904059;28;20288;-78
2022/10/13 01:16:23;;;;;;;8.75;5.07;;;;;;;11.40;64.55;97738.19;4912926;28;20162;-78
2022/10/13 01:19:35;;;;;;;9.82;7.07;;;;;;;11.37;64.39;97736.03;4922083;28;20181;-78
2022/10/13 01:22:12;;;;;;;11.60;6.70;;;;;;;11.45;64.79;97734.88;4882696;28;20324;-78
2022/10/13 01:24:45;;;;;;;11.52;6.75;;;;;;;11.54;64.58;97743.09;4872055;28;20220;-78
2022/10/13 01:27:37;;;;;;;12.70;6.05;;;;;;;11.37;65.01;97741.25;4901383;28;20177;-78
2022/10/13 01:30:07;;;;;;;12.18;5.57;;;;;;;11.48;64.65;97738.81;4944957;28;20409;-78
2022/10/13 01:32:59;;;;;;;11.57;6.05;;;;;;;11.32;64.91;97730.72;4911431;28;20272;-78
2022/10/13 01:35:27;;;;;;;12.05;7.03;;;;;;;11.46;64.48;97733.03;4963794;28;20199;-78
2022/10/13 01:38:04;;;;;;;13.07;7.78;;;;;;;11.37;65.24;97728.22;4946632;28;20199;-78
2022/10/13 01:40:37;;;;;;;13.52;7.95;;;;;;;11.38;65.55;97724.59;4916662;28;20306;-78
2022/10/13 01:43:07;;;;;;;15.77;8.23;;;;;;;11.42;65.78;97727.50;4906667;28;20708;-78
2022/10/13 01:45:49;;;;;;;15.30;8.30;;;;;;;11.33;65.49;97727.13;4931988;28;20367;-78
2022/10/13 01:48:16;;;;;;;14.15;7.32;;;;;;;11.51;65.29;97727.91;4922293;28;20275;-78
2022/10/13 01:50:41;;;;;;;20.05;8.80;;;;;;;11.54;65.09;97728.22;4921017;28;20648;-78
2022/10/13 01:53:07;;;;;;;15.60;7.95;;;;;;;11.40;64.97;97712.09;4951670;28;20269;-78
2022/10/13 01:55:32;;;;;;;9.82;5.43;;;;;;;11.39;64.81;97705.28;4928368;28;20209;-78
2022/10/13 01:57:58;;;;;;;9.18;6.13;;;;;;;11.36;64.41;97705.78;4944763;28;20155;-79
2022/10/13 02:00:24;;;;;;;14.30;6.93;;;;;;;11.32;64.46;97703.88;4942993;28;20250;-78
2022/10/13 02:02:57;;;;;;;13.63;6.78;;;;;;;11.34;64.11;97704.44;4945298;28;20156;-78
2022/10/13 02:05:32;;;;;;;11.77;5.90;;;;;;;11.24;64.12;97712.88;4916145;28;20130;-78
2022/10/13 02:08:20;;;;;;;9.98;5.78;;;;;;;11.26;64.18;97705.63;4931629;28;20360;-78
2022/10/13 02:10:51;;;;;;;12.88;5.25;;;;;;;11.35;64.11;97691.16;4930783;28;20355;-78
2022/10/13 02:13:19;;;;;;;6.88;4.45;;;;;;;11.32;64.78;97693.44;4952993;28;20186;-78
2022/10/13 02:15:48;;;;;;;9.80;5.40;;;;;;;11.34;64.98;97694.78;4904000;28;20204;-78
2022/10/13 02:18:16;;;;;;;9.98;4.85;;;;;;;11.28;65.33;97680.09;4947707;28;20296;-78
2022/10/13 02:20:43;;;;;;;10.68;6.85;;;;;;;11.38;65.63;97677.66;4948603;28;20279;-78
2022/10/13 02:23:11;;;;;;;8.13;5.53;;;;;;;11.41;65.69;97679.81;4921680;28;20200;-78
2022/10/13 02:25:36;;;;;;;13.38;6.50;;;;;;;11.44;65.79;97676.69;4913845;28;20201;-78
2022/10/13 02:28:02;;;;;;;11.02;5.78;;;;;;;11.47;65.86;97666.84;4913837;28;20173;-78
2022/10/13 02:30:29;;;;;;;10.68;5.50;;;;;;;11.46;65.99;97658.22;4949351;28;20314;-78
2022/10/13 02:32:54;;;;;;;13.07;6.97;;;;;;;11.58;65.65;97666.75;4946422;28;20271;-78
2022/10/13 02:35:20;;;;;;;13.55;6.65;;;;;;;11.61;65.81;97663.66;4927362;28;20195;-78
2022/10/13 02:37:46;;;;;;;10.07;6.20;;;;;;;11.69;65.15;97666.91;4912421;28;20239;-78
2022/10/13 02:40:11;;;;;;;13.32;6.28;;;;;;;11.58;65.38;97665.94;4939630;28;20894;-78
2022/10/13 02:42:37;;;;;;;12.30;6.32;;;;;;;11.53;65.50;97674.50;4924790;28;20255;-78
2022/10/13 02:45:03;;;;;;;11.10;5.80;;;;;;;11.49;65.50;97673.38;4936000;28;20240;-78
2022/10/13 02:47:28;;;;;;;13.18;6.90;;;;;;;11.48;65.85;97671.00;4942885;28;20293;-77
2022/10/13 02:49:54;;;;;;;12.68;6.80;;;;;;;11.53;65.99;97668.47;4930368;28;20253;-78
2022/10/13 02:52:19;;;;;;;14.98;6.72;;;;;;;11.57;66.03;97667.00;4943403;28;20201;-78
2022/10/13 02:54:44;;;;;;;14.13;7.28;;;;;;;11.60;66.26;97653.47;4918621;28;20633;-78
2022/10/13 02:57:10;;;;;;;14.00;8.07;;;;;;;11.67;66.64;97658.50;4933194;28;20084;-78
2022/10/13 02:59:35;;;;;;;15.30;8.75;;;;;;;11.73;66.68;97649.75;4939596;28;20205;-78
2022/10/13 03:02:02;;;;;;;16.88;8.45;;;;;;;11.78;66.85;97650.59;4916690;28;20291;-78
2022/10/13 03:04:27;;;;;;;15.70;8.18;;;;;;;11.86;66.42;97640.78;4911773;28;20304;-78
2022/10/13 03:06:52;;;;;;;16.17;8.13;;;;;;;11.93;66.16;97644.06;4958045;28;20255;-78
2022/10/13 03:09:18;;;;;;;14.85;7.43;;;;;;;11.96;66.10;97651.38;4962448;28;20294;-78
2022/10/13 03:11:43;;;;;;;11.00;6.80;;;;;;;12.00;66.02;97647.28;4931114;28;20305;-78
2022/10/13 03:14:08;;;;;;;12.45;7.82;;;;;;;11.98;65.59;97644.13;4923446;28;20165;-78
2022/10/13 03:16:34;;;;;;;13.15;7.10;;;;;;;12.01;65.41;97646.22;4945054;28;20234;-78
2022/10/13 03:18:59;;;;;;;15.43;7.30;;;;;;;12.02;65.89;97642.59;4918545;28;20616;-78
2022/10/13 03:21:25;;;;;;;10.90;6.78;;;;;;;12.04;66.04;97643.13;4938789;28;20239;-78
2022/10/13 03:23:50;;;;;;;12.38;6.65;;;;;;;12.06;65.75;97641.06;4945336;28;20279;-78
2022/10/13 03:26:16;;;;;;;17.73;9.98;;;;;;;12.27;65.85;97655.19;4920157;28;20275;-78
2022/10/13 03:28:41;;;;;;;19.45;9.80;;;;;;;12.34;66.20;97655.00;4953964;28;20654;-79
2022/10/13 03:31:08;;;;;;;16.77;9.05;;;;;;;12.35;66.21;97656.56;4922752;28;20292;-78
2022/10/13 03:33:34;;;;;;;14.63;9.32;;;;;;;12.39;66.40;97662.88;4943078;28;20180;-78
2022/10/13 03:36:00;;;;;;;15.63;8.77;;;;;;;12.39;66.04;97660.28;4916554;28;20256;-78
2022/10/13 03:38:30;;;;;;;18.20;9.27;;;;;;;12.38;66.51;97657.91;4943430;28;20285;-77
2022/10/13 03:40:55;;;;;;;15.30;9.00;;;;;;;12.38;66.88;97645.63;4928602;28;20618;-78
2022/10/13 03:43:21;;;;;;;16.80;9.80;;;;;;;12.38;67.12;97640.41;4919597;28;20377;-78
2022/10/13 03:45:57;;;;;;;14.15;8.10;;;;;;;12.24;67.28;97634.78;4939142;28;20219;-77
2022/10/13 03:48:23;;;;;;;13.93;7.32;;;;;;;12.41;67.05;97636.53;4923661;28;20181;-77
2022/10/13 03:50:49;;;;;;;11.88;6.68;;;;;;;12.48;66.49;97627.47;4915410;28;20382;-77
2022/10/13 03:53:14;;;;;;;13.52;7.63;;;;;;;12.51;66.56;97631.41;4942946;28;20170;-78
2022/10/13 03:55:39;;;;;;;12.77;7.35;;;;;;;12.59;66.35;97638.03;4925555;28;20208;-77
2022/10/13 03:58:05;;;;;;;12.77;7.53;;;;;;;12.63;66.17;97636.47;4917451;28;20196;-77
2022/10/13 04:00:30;;;;;;;14.13;7.72;;;;;;;12.56;66.34;97631.47;4923059;28;20716;-78
2022/10/13 04:02:55;;;;;;;13.07;7.40;;;;;;;12.52;66.51;97625.94;4947715;28;20461;-78
2022/10/13 04:05:21;;;;;;;11.95;6.57;;;;;;;12.54;66.39;97629.09;4906662;28;20259;-77
2022/10/13 04:07:46;;;;;;;11.35;6.75;;;;;;;12.68;65.52;97629.50;4946612;28;20212;-78
2022/10/13 04:10:14;;;;;;;10.57;6.78;;;;;;;12.67;65.91;97640.97;4928000;28;20204;-78
2022/10/13 04:12:39;;;;;;;11.10;7.40;;;;;;;12.69;65.29;97627.69;4942287;28;20258;-78
2022/10/13 04:15:05;;;;;;;12.20;6.93;;;;;;;12.48;66.19;97611.78;4935987;28;20178;-78
2022/10/13 04:17:31;;;;;;;17.15;8.60;;;;;;;12.46;66.57;97618.31;4930339;28;20690;-78
2022/10/13 04:19:56;;;;;;;12.57;7.60;;;;;;;12.44;66.12;97615.94;4940151;28;20204;-78
2022/10/13 04:22:21;;;;;;;11.30;6.90;;;;;;;12.40;66.27;97620.06;4913047;28;20192;-77
2022/10/13 04:24:47;;;;;;;11.57;7.70;;;;;;;12.39;65.90;97621.09;4932179;28;20208;-78
2022/10/13 04:27:15;;;;;;;10.93;6.90;;;;;;;12.38;66.00;97616.91;4922583;28;20185;-78
2022/10/13 04:29:40;;;;;;;13.15;7.68;;;;;;;12.50;65.10;97624.59;4944518;28;20189;-77
2022/10/13 04:32:06;;;;;;;14.23;7.93;;;;;;;12.32;65.28;97621.28;4931142;28;20646;-77
2022/10/13 04:34:31;;;;;;;11.85;7.43;;;;;;;12.35;65.19;97614.78;4926673;28;20643;-77
2022/10/13 04:36:57;;;;;;;13.77;7.65;;;;;;;12.32;64.89;97623.09;4939015;28;20174;-77
2022/10/13 04:39:22;;;;;;;13.98;6.93;;;;;;;12.30;64.89;97622.56;4930366;28;20219;-77
2022/10/13 04:41:47;;;;;;;11.25;5.53;;;;;;;12.16;65.05;97609.88;4916440;28;20188;-78
2022/10/13 04:44:13;;;;;;;13.18;5.97;;;;;;;12.18;65.26;97613.03;4938460;28;20211;-78
2022/10/13 04:46:38;;;;;;;11.30;6.25;;;;;;;12.14;65.58;97596.28;4937066;28;20192;-78
2022/10/13 04:49:04;;;;;;;12.18;6.63;;;;;;;12.10;65.81;97587.38;4927121;28;20166;-78
2022/10/13 04:51:29;;;;;;;10.43;7.10;;;;;;;12.04;65.95;97584.94;4938164;28;20337;-77
2022/10/13 04:53:59;;;;;;;12.35;6.68;;;;;;;11.95;65.72;97577.53;4941659;28;20438;-78
2022/10/13 04:56:26;;;;;;;12.57;6.25;;;;;;;11.98;65.89;97571.03;4912310;28;20637;-77
2022/10/13 04:58:51;;;;;;;9.57;5.90;;;;;;;12.07;65.64;97574.78;4944925;28;20203;-77
2022/10/13 05:01:20;;;;;;;9.77;6.07;;;;;;;12.04;65.49;97569.28;4957583;28;20189;-77
2022/10/13 05:03:45;;;;;;;11.50;6.20;;;;;;;12.12;65.04;97566.25;4932476;28;20238;-77
2022/10/13 05:06:16;;;;;;;13.43;7.10;;;;;;;11.97;65.19;97577.28;4944944;28;20726;-78
2022/10/13 05:08:42;;;;;;;12.07;6.38;;;;;;;12.11;65.19;97580.31;4943034;28;20535;-78
2022/10/13 05:11:07;;;;;;;19.58;8.75;;;;;;;12.10;66.47;97576.94;4929874;28;20207;-78
2022/10/13 05:13:32;;;;;;;17.23;9.27;;;;;;;12.12;66.90;97582.69;4902161;28;20189;-77
2022/10/13 05:15:58;;;;;;;20.67;8.68;;;;;;;12.21;66.54;97588.25;4923907;28;20746;-78
2022/10/13 05:18:23;;;;;;;16.40;8.65;;;;;;;12.20;66.41;97584.09;4947218;28;20742;-78
2022/10/13 05:20:49;;;;;;;19.75;10.73;;;;;;;12.16;66.48;97583.75;4913756;28;20275;-77
2022/10/13 05:23:15;;;;;;;15.32;9.48;;;;;;;12.20;66.02;97593.72;4927472;28;20258;-77
2022/10/13 05:25:40;;;;;;;19.17;11.60;;;;;;;12.04;66.38;97596.16;4962662;28;20224;-77
2022/10/13 05:28:06;;;;;;;18.48;11.85;;;;;;;11.99;66.30;97602.13;4949386;28;20854;-78
2022/10/13 05:30:32;;;;;;;16.77;9.73;;;;;;;11.99;66.43;97598.69;4923942;28;20230;-78
2022/10/13 05:32:58;;;;;;;16.83;11.18;;;;;;;12.00;66.80;97600.28;4924819;28;20203;-78
2022/10/13 05:35:24;;;;;;;19.55;12.27;;;;;;;12.03;66.67;97606.84;4940168;28;20406;-77
2022/10/13 05:37:49;;;;;;;17.17;11.30;;;;;;;12.12;66.59;97603.56;4926626;28;20870;-78
2022/10/13 05:40:15;;;;;;;20.33;12.77;;;;;;;12.18;66.61;97607.81;4940333;28;20440;-77
2022/10/13 05:42:40;;;;;;;18.48;10.57;;;;;;;12.22;66.66;97607.31;4939823;28;20698;-77
2022/10/13 05:45:08;;;;;;;15.88;12.35;;;;;;;12.23;66.71;97598.47;4915994;28;20647;-78
2022/10/13 05:47:34;;;;;;;19.17;11.10;;;;;;;12.33;66.89;97601.19;4933480;28;20186;-78
2022/10/13 05:49:59;;;;;;;13.85;10.05;;;;;;;12.35;66.63;97602.53;4935312;28;20209;-78
2022/10/13 05:52:25;;;;;;;14.70;9.82;;;;;;;12.38;66.63;97608.28;4930815;28;20269;-78
2022/10/13 05:54:54;;;;;;;12.90;8.73;;;;;;;12.34;66.72;97610.59;4951487;28;20205;-78
2022/10/13 05:57:41;;;;;;;13.00;8.48;;;;;;;12.22;67.30;97612.53;4928849;28;20287;-78
2022/10/13 06:00:09;;;;;;;13.07;8.18;;;;;;;12.47;67.11;97615.44;4942195;28;20170;-78
2022/10/13 06:02:48;;;;;;;15.95;9.07;;;;;;;12.39;67.11;97608.06;4912940;28;20173;-78
2022/10/13 06:05:16;;;;;;;18.80;10.40;;;;;;;12.62;66.92;97611.41;4904438;28;20309;-78
2022/10/13 06:07:42;;;;;;;19.75;10.60;;;;;;;12.66;66.98;97594.19;4943381;28;20278;-78
2022/10/13 06:10:08;;;;;;;14.98;9.02;;;;;;;12.69;66.79;97583.25;4930554;28;20819;-78
2022/10/13 06:12:34;;;;;;;14.15;8.50;;;;;;;12.81;66.41;97583.88;4911852;28;20209;-78
2022/10/13 06:14:59;;;;;;;13.75;8.30;;;;;;;12.90;65.80;97592.88;4960451;28;20169;-78
2022/10/13 06:17:24;;;;;;;11.80;5.93;;;;;;;12.87;64.66;97595.97;4928984;28;20182;-78
2022/10/13 06:19:50;;;;;;;9.60;5.80;;;;;;;12.92;64.06;97598.63;4952102;28;20192;-78
2022/10/13 06:22:16;;;;;;;9.70;6.03;;;;;;;12.64;64.81;97593.66;4948452;28;20178;-78
2022/10/13 06:24:41;;;;;;;9.48;5.72;;;;;;;12.63;65.68;97592.06;4945725;28;20197;-79
2022/10/13 06:27:06;;;;;;;9.27;5.70;;;;;;;12.72;65.15;97596.63;4919609;28;20222;-77
2022/10/13 06:29:32;;;;;;;11.32;5.70;;;;;;;12.71;65.54;97604.69;4951522;28;20250;-78
2022/10/13 06:31:57;;;;;;;11.32;7.07;;;;;;;12.65;65.23;97590.03;4962531;28;20406;-78
2022/10/13 06:34:23;;;;;;;12.63;6.50;;;;;;;12.60;66.13;97589.97;4946645;28;20222;-78
2022/10/13 06:36:48;;;;;;;12.70;7.30;;;;;;;12.64;66.48;97588.44;4941607;28;20178;-78
2022/10/13 06:39:13;;;;;;;10.57;6.40;;;;;;;12.70;67.04;97584.84;4946663;28;20217;-78
2022/10/13 06:41:39;;;;;;;12.20;6.95;;;;;;;12.77;66.99;97592.50;4928578;28;20273;-78
2022/10/13 06:44:04;;;;;;;10.35;6.00;;;;;;;12.84;66.86;97596.47;4963677;28;20212;-77
2022/10/13 06:46:30;;;;;;;14.07;7.53;;;;;;;12.95;66.39;97605.16;4928618;28;20208;-77
2022/10/13 06:48:55;;;;;;;13.20;7.88;;;;;;;13.00;65.95;97602.59;4933715;28;20262;-77
2022/10/13 06:51:20;;;;;;;11.82;6.55;;;;;;;12.95;65.51;97599.94;4932156;28;20192;-77
2022/10/13 06:53:46;;;;;;;13.77;7.55;;;;;;;12.95;66.69;97599.16;4942875;28;20605;-78
2022/10/13 06:56:11;;;;;;;12.38;8.77;;;;;;;12.95;67.19;97594.72;4919858;28;20171;-77
2022/10/13 06:58:37;;;;;;;15.20;8.25;;;;;;;13.06;66.61;97600.84;4909409;28;20371;-78
2022/10/13 07:01:04;;;;;;;17.02;9.20;;;;;;;13.16;66.76;97598.31;4919526;28;20584;-78
2022/10/13 07:03:29;;;;;;;16.40;8.60;;;;;;;13.27;66.48;97605.16;4941794;28;20236;-78
2022/10/13 07:05:59;;;;;;;17.13;9.82;;;;;;;13.29;66.40;97603.06;4944847;28;20574;-79
2022/10/13 07:08:25;;;;;;;18.67;9.05;;;;;;;13.53;66.24;97604.59;4947812;28;20299;-78
2022/10/13 07:10:50;;;;;;;18.13;9.82;;;;;;;13.66;65.88;97615.38;4926514;28;20782;-81
2022/10/13 07:13:15;;;;;;;15.38;9.18;;;;;;;13.73;66.21;97615.16;4917204;28;20203;-78
2022/10/13 07:15:41;;;;;;;14.95;9.23;;;;;;;13.74;66.46;97601.03;4914601;28;20674;-78
2022/10/13 07:18:06;;;;;;;15.57;8.60;;;;;;;13.81;65.61;97606.03;4940855;28;20665;-78
2022/10/13 07:20:32;;;;;;;13.45;8.02;;;;;;;13.89;65.73;97612.63;4956740;28;20133;-77
2022/10/13 07:22:57;;;;;;;16.33;8.75;;;;;;;13.94;65.87;97612.66;4925866;28;20209;-78
2022/10/13 07:25:23;;;;;;;14.40;9.07;;;;;;;13.91;66.32;97602.69;4949575;28;20187;-78
2022/10/13 07:27:48;;;;;;;15.63;9.20;;;;;;;13.96;66.33;97602.72;4943626;28;20238;-79
2022/10/13 07:30:14;;;;;;;16.50;9.85;;;;;;;13.85;66.81;97596.66;4942433;28;20220;-78
2022/10/13 07:32:41;;;;;;;14.68;9.10;;;;;;;13.90;66.83;97603.72;4944386;28;20216;-78
2022/10/13 07:35:08;;;;;;;19.55;10.25;;;;;;;13.88;66.49;97595.34;4949290;28;20282;-78
2022/10/13 07:37:33;;;;;;;17.83;10.30;;;;;;;13.91;66.49;97582.53;4918113;28;20150;-78
2022/10/13 07:39:59;;;;;;;15.80;9.18;;;;;;;13.98;66.03;97596.19;4949957;28;20270;-78
2022/10/13 07:42:25;;;;;;;18.80;8.75;;;;;;;14.00;66.74;97598.53;4919677;28;20159;-78
2022/10/13 07:44:50;;;;;;;15.10;8.15;;;;;;;14.03;66.39;97592.78;4894136;28;20672;-78
2022/10/13 07:47:15;;;;;;;17.83;10.57;;;;;;;14.01;66.97;97594.88;4943530;28;20287;-80
2022/10/13 07:49:41;;;;;;;14.00;7.72;;;;;;;13.97;66.51;97599.84;4934557;28;20205;-77
2022/10/13 07:52:06;;;;;;;13.27;8.90;;;;;;;13.99;67.34;97602.97;4942054;28;20215;-81
2022/10/13 07:54:31;;;;;;;17.40;9.23;;;;;;;14.02;67.25;97599.09;4930822;28;20243;-77
2022/10/13 07:56:57;;;;;;;18.73;9.75;;;;;;;14.05;66.85;97596.72;4931793;28;20237;-77
2022/10/13 07:59:22;;;;;;;19.92;9.85;;;;;;;14.11;66.76;97602.00;4919842;28;20274;-77
2022/10/13 08:01:48;;;;;;;15.95;9.68;;;;;;;14.13;66.62;97599.91;4929084;28;20402;-77
2022/10/13 08:04:13;;;;;;;18.38;8.75;;;;;;;14.08;67.06;97592.03;4920883;28;20694;-77
2022/10/13 08:06:38;;;;;;;17.08;9.05;;;;;;;14.12;67.15;97593.06;4948174;28;20634;-77
2022/10/13 08:09:04;;;;;;;19.88;11.05;;;;;;;14.17;66.99;97595.72;4924515;28;20257;-77
2022/10/13 08:11:30;;;;;;;26.92;13.68;;;;;;;14.18;67.30;97597.31;4925151;28;20271;-77
2022/10/13 08:13:59;;;;;;;24.50;11.55;;;;;;;14.23;67.18;97597.31;4901963;28;20285;-77
2022/10/13 08:16:28;;;;;;;21.05;10.57;;;;;;;14.20;67.10;97588.13;4913295;28;20197;-77
2022/10/13 08:18:53;;;;;;;17.75;9.98;;;;;;;14.19;67.01;97583.16;4912746;28;20173;-77
2022/10/13 08:21:21;;;;;;;17.10;9.80;;;;;;;14.26;66.61;97591.56;4946029;28;20259;-77
2022/10/13 08:23:47;;;;;;;18.15;10.43;;;;;;;14.24;67.19;97585.81;4939871;28;20680;-77
2022/10/13 08:26:22;;;;;;;23.33;12.73;;;;;;;14.14;68.12;97589.16;4948004;28;20177;-77
2022/10/13 08:28:47;;;;;;;;;;;;;;;14.06;69.18;97581.81;4932625;28;20652;-77
2022/10/13 08:31:13;;;;;;;25.40;13.70;;;;;;;14.46;67.98;97588.19;4944198;28;20108;-77
2022/10/13 08:33:40;;;;;;;27.88;15.95;;;;;;;14.53;68.36;97586.13;4960915;28;20091;-77
2022/10/13 08:36:06;;;;;;;24.08;14.18;;;;;;;14.58;67.74;97582.72;4909513;28;20208;-77
2022/10/13 08:38:31;;;;;;;23.27;14.10;;;;;;;14.61;68.23;97585.63;4932443;28;20791;-77
2022/10/13 08:40:56;;;;;;;23.13;12.95;;;;;;;14.67;68.35;97580.41;4941789;28;20186;-77
2022/10/13 08:43:23;;;;;;;25.15;13.15;;;;;;;14.71;68.34;97574.38;4915100;28;20308;-78
2022/10/13 08:45:50;;;;;;;20.45;11.98;;;;;;;14.74;68.06;97573.88;4902822;28;20262;-78
2022/10/13 08:48:24;;;;;;;19.67;10.95;;;;;;;14.68;68.02;97572.28;4948282;28;20200;-78
2022/10/13 08:50:52;;;;;;;20.08;10.63;;;;;;;14.77;68.39;97580.41;4933451;28;20452;-78
2022/10/13 08:53:33;;;;;;;20.00;11.38;;;;;;;14.67;68.58;97581.22;4916274;28;20765;-78
2022/10/13 08:56:09;;;;;;;19.38;9.93;;;;;;;14.75;68.43;97578.06;4924954;28;20174;-78
2022/10/13 08:58:36;;;;;;;18.92;10.80;;;;;;;14.93;68.44;97573.34;4950662;28;20250;-79
2022/10/13 09:01:08;;;;;;;19.77;11.55;;;;;;;14.93;68.58;97579.38;4934838;28;20649;-79
2022/10/13 09:03:59;;;;;;;21.92;10.63;;;;;;;14.92;68.92;97592.75;4945135;28;20183;-79
2022/10/13 09:06:40;;;;;;;16.30;11.07;;;;;;;14.97;68.82;97579.63;4935691;28;20359;-79
2022/10/13 09:09:07;;;;;;;18.20;9.88;;;;;;;15.13;67.95;97580.41;4946507;28;20219;-79
2022/10/13 09:11:36;;;;;;;19.98;10.57;;;;;;;15.09;68.14;97582.78;4924723;28;20200;-79
2022/10/13 09:14:08;;;;;;;18.42;9.57;;;;;;;15.12;67.76;97578.84;4939442;28;20162;-79
2022/10/13 09:16:38;;;;;;;17.95;9.48;;;;;;;15.23;68.45;97579.63;4928578;28;20203;-79
2022/10/13 09:19:16;;;;;;;18.58;9.85;;;;;;;15.05;67.84;97579.13;4938796;28;20521;-81
2022/10/13 09:21:42;;;;;;;18.05;9.57;;;;;;;15.22;68.02;97576.22;4970998;28;20223;-79
2022/10/13 09:24:13;;;;;;;16.05;8.98;;;;;;;15.12;68.35;97577.00;4943272;28;20603;-79
2022/10/13 09:26:39;;;;;;;15.65;9.13;;;;;;;15.20;68.62;97574.91;4937270;28;20209;-78
2022/10/13 09:29:10;;;;;;;17.15;9.75;;;;;;;15.15;68.23;97573.88;4934152;28;20694;-79
2022/10/13 09:31:36;;;;;;;16.73;9.48;;;;;;;15.23;68.28;97582.25;4943289;28;20188;-79
2022/10/13 09:34:22;;;;;;;16.05;9.45;;;;;;;15.02;69.00;97584.09;4932992;28;20208;-79
2022/10/13 09:36:55;;;;;;;19.25;9.10;;;;;;;15.10;68.63;97570.47;5037514;23;20163;-79
2022/10/13 09:39:21;;;;;;;17.90;9.88;;;;;;;15.29;68.60;97568.09;4959557;28;20174;-79
2022/10/13 09:41:47;;;;;;;19.13;9.68;;;;;;;15.30;68.88;97567.03;4962423;28;20196;-79
2022/10/13 09:44:15;;;;;;;15.73;8.38;;;;;;;15.38;68.56;97574.34;4919115;28;20704;-79
2022/10/13 09:46:50;;;;;;;18.67;10.35;;;;;;;15.47;68.78;97577.22;4906043;28;20204;-79
2022/10/13 09:49:36;;;;;;;;;;;;;;;15.30;69.79;97572.28;4921954;28;20568;-79
2022/10/13 09:52:05;;;;;;;18.15;9.82;;;;;;;15.74;68.64;97576.91;4937026;28;20053;-79
2022/10/13 09:54:51;;;;;;;16.10;9.27;;;;;;;15.79;68.74;97578.75;4948159;28;20784;-79
2022/10/13 09:57:28;;;;;;;19.63;9.68;;;;;;;15.97;68.58;97587.88;4943854;28;20657;-79
2022/10/13 10:02:34;;;;;;;19.45;10.15;;;;;;;16.33;68.34;97585.88;4952087;28;20259;-79
2022/10/13 10:05:06;;;;;;;18.23;10.07;;;;;;;16.41;67.93;97585.28;4936058;28;20193;-80
2022/10/13 10:07:32;;;;;;;14.65;9.60;;;;;;;16.63;67.68;97582.25;4918156;28;20213;-79
2022/10/13 10:10:09;;;;;;;17.17;9.30;;;;;;;16.56;67.67;97581.78;4917211;28;20731;-80
2022/10/13 10:12:36;;;;;;;16.70;9.35;;;;;;;16.78;67.25;97578.75;4946765;28;20283;-80
2022/10/13 10:15:20;;;;;;;15.40;9.43;;;;;;;16.90;66.96;97573.19;4932844;28;20109;-80
2022/10/13 10:17:59;;;;;;;13.40;8.80;;;;;;;16.80;66.17;97570.59;4929967;28;20273;-80
2022/10/13 10:20:54;;;;;;;14.85;9.20;;;;;;;16.87;66.73;97560.56;4925572;28;20195;-81
2022/10/13 10:23:29;;;;;;;13.90;9.03;;;;;;;17.02;67.28;97568.34;4935117;28;20068;-79
2022/10/13 10:26:05;;;;;;;15.38;8.60;;;;;;;17.06;66.74;97559.91;4966647;28;20529;-79
2022/10/13 10:28:52;;;;;;;12.70;8.93;;;;;;;17.26;67.98;97557.09;4942683;28;20734;-79
2022/10/13 10:31:47;;;;;;;12.80;9.27;;;;;;;17.47;66.65;97546.34;4930002;28;20171;-79
2022/10/13 10:34:25;;;;;;;16.00;9.35;;;;;;;17.77;66.89;97539.97;4918610;28;20308;-80
2022/10/13 10:37:13;;;;;;;15.43;9.10;;;;;;;17.92;65.58;97552.97;4939187;28;20212;-79
2022/10/13 10:39:46;;;;;;;13.00;8.50;;;;;;;18.29;64.60;97540.88;4940685;28;20255;-79
2022/10/13 10:42:37;;;;;;;13.00;7.88;;;;;;;18.04;64.50;97539.38;4962423;28;20650;-79
2022/10/13 10:45:05;;;;;;;13.10;9.00;;;;;;;18.29;63.77;97527.69;4917054;28;20713;-79
2022/10/13 10:47:40;;;;;;;14.05;8.50;;;;;;;18.13;63.92;97529.78;4935316;28;20570;-79
2022/10/13 10:50:07;;;;;;;16.30;8.57;;;;;;;18.27;63.63;97526.44;4962650;28;20283;-79
2022/10/13 10:52:56;;;;;;;15.18;8.57;;;;;;;18.18;63.99;97518.38;4936390;28;20216;-79
2022/10/13 10:55:28;;;;;;;17.08;8.73;;;;;;;18.26;64.87;97514.31;4930050;28;20201;-79
2022/10/13 10:58:05;;;;;;;14.15;8.85;;;;;;;18.21;64.17;97506.47;4928690;28;20872;-78
2022/10/13 11:00:34;;;;;;;17.27;9.50;;;;;;;18.18;64.18;97512.31;4931553;28;20643;-80
2022/10/13 11:03:06;;;;;;;13.88;8.85;;;;;;;18.15;62.94;97514.44;4947714;28;20210;-79
2022/10/13 11:06:04;;;;;;;18.00;9.07;;;;;;;18.11;64.41;97513.47;4929405;28;20253;-79
2022/10/13 11:08:41;;;;;;;15.00;9.52;;;;;;;18.05;64.58;97516.44;4945477;28;20386;-79
2022/10/13 11:11:19;;;;;;;14.25;9.80;;;;;;;18.12;64.50;97514.25;4931262;28;20283;-79
2022/10/13 11:13:52;;;;;;;12.20;9.48;;;;;;;18.04;64.73;97510.38;4951026;28;20198;-79
2022/10/13 11:16:31;;;;;;;17.20;10.52;;;;;;;18.05;65.06;97514.59;4929089;28;20700;-79
2022/10/13 11:19:04;;;;;;;17.15;9.73;;;;;;;18.28;63.98;97506.91;4944771;28;20276;-79
2022/10/13 11:21:51;;;;;;;15.45;9.93;;;;;;;18.03;64.90;97511.47;4932738;28;20158;-78
2022/10/13 11:24:32;;;;;;;17.58;10.10;;;;;;;18.00;64.77;97517.28;4947594;28;20357;-78
2022/10/13 11:27:18;;;;;;;14.68;9.55;;;;;;;17.93;65.30;97520.28;4930299;28;20193;-78
2022/10/13 11:29:45;;;;;;;16.60;10.90;;;;;;;18.08;66.00;97518.53;4944806;28;20173;-78
2022/10/13 11:34:59;;;;;;;17.75;11.40;;;;;;;18.07;65.06;97514.31;4958322;28;20162;-79
2022/10/13 11:37:46;;;;;;;15.07;11.02;;;;;;;17.89;65.52;97523.75;4897664;28;20247;-78
2022/10/13 11:40:34;;;;;;;17.58;11.50;;;;;;;17.83;65.13;97522.22;4938941;28;20762;-78